createdAt,value
2018-08-31T00:02:33.407Z,95339.12
2018-08-31T00:05:56.597Z,95327.83
2018-08-31T00:11:14.671Z,95326.66
2018-08-31T00:13:43.923Z,95316.77
2018-08-31T00:16:13.174Z,95308.98
2018-08-31T00:18:42.397Z,95307.57
2018-08-31T00:21:11.641Z,95307.55
2018-08-31T00:23:57.850Z,95308.94
2018-08-31T00:26:44.052Z,95304.00
2018-08-31T00:29:44.422Z,95300.11
2018-08-31T00:32:45.346Z,95297.11
2018-08-31T00:37:41.167Z,95301.36
2018-08-31T00:40:34.284Z,95289.97
2018-08-31T00:45:32.282Z,95284.77
2018-08-31T00:48:02.043Z,95292.60
2018-08-31T00:50:31.547Z,95293.09
2018-08-31T00:53:01.107Z,95286.36
2018-08-31T00:55:30.503Z,95288.09
2018-08-31T00:57:59.778Z,95290.13
2018-08-31T01:00:29.086Z,95292.02
2018-08-31T01:02:58.334Z,95288.44
2018-08-31T01:05:27.562Z,95284.82
2018-08-31T01:07:56.822Z,95283.34
2018-08-31T01:10:26.224Z,95285.27
2018-08-31T01:12:56.249Z,95279.64
2018-08-31T01:15:25.486Z,95281.89
2018-08-31T01:17:55.252Z,95278.13
2018-08-31T01:20:24.482Z,95268.58
2018-08-31T01:22:53.731Z,95257.77
2018-08-31T01:25:23.127Z,95260.95
2018-08-31T01:27:52.491Z,95262.34
2018-08-31T01:30:21.735Z,95259.60
2018-08-31T01:32:50.984Z,95255.88
2018-08-31T01:35:20.250Z,95244.92
2018-08-31T01:37:49.492Z,95246.75
2018-08-31T01:40:18.769Z,95242.81
2018-08-31T01:42:48.120Z,95242.39
2018-08-31T01:45:17.390Z,95249.32
2018-08-31T01:47:46.640Z,95250.00
2018-08-31T01:50:15.959Z,95246.23
2018-08-31T01:52:45.267Z,95243.86
2018-08-31T01:55:14.439Z,95236.48
2018-08-31T01:57:43.708Z,95227.38
2018-08-31T02:00:12.947Z,95224.28
2018-08-31T02:02:42.230Z,95223.45
2018-08-31T02:05:12.735Z,95219.28
2018-08-31T02:07:41.976Z,95225.09
2018-08-31T02:10:11.227Z,95231.41
2018-08-31T02:12:40.473Z,95230.58
2018-08-31T02:15:09.744Z,95233.89
2018-08-31T02:17:38.972Z,95230.58
2018-08-31T02:20:08.246Z,95237.77
2018-08-31T02:22:37.520Z,95248.14
2018-08-31T02:25:06.789Z,95245.17
2018-08-31T02:27:36.100Z,95243.84
2018-08-31T02:30:05.455Z,95241.66
2018-08-31T02:32:34.932Z,95238.32
2018-08-31T02:35:04.175Z,95242.12
2018-08-31T02:37:33.426Z,95243.14
2018-08-31T02:40:02.661Z,95229.80
2018-08-31T02:42:32.167Z,95225.83
2018-08-31T02:45:01.423Z,95229.44
2018-08-31T02:47:30.661Z,95238.80
2018-08-31T02:49:59.931Z,95243.23
2018-08-31T02:52:29.183Z,95252.80
2018-08-31T02:54:58.399Z,95253.97
2018-08-31T02:57:27.647Z,95255.27
2018-08-31T02:59:56.879Z,95251.48
2018-08-31T03:02:26.166Z,95244.20
2018-08-31T03:04:55.407Z,95239.07
2018-08-31T03:07:24.662Z,95244.50
2018-08-31T03:09:53.907Z,95243.55
2018-08-31T03:12:23.153Z,95237.95
2018-08-31T03:14:52.392Z,95236.00
2018-08-31T03:22:19.359Z,95247.73
2018-08-31T03:24:48.587Z,95246.75
2018-08-31T03:27:17.867Z,95242.95
2018-08-31T03:29:47.115Z,95242.59
2018-08-31T03:32:16.430Z,95243.72
2018-08-31T03:34:45.675Z,95239.49
2018-08-31T03:37:14.955Z,95235.13
2018-08-31T03:39:44.190Z,95226.76
2018-08-31T03:42:13.435Z,95225.46
2018-08-31T03:44:42.746Z,95222.87
2018-08-31T03:47:12.002Z,95228.79
2018-08-31T03:49:41.336Z,95222.08
2018-08-31T03:52:10.666Z,95219.46
2018-08-31T03:54:39.939Z,95220.13
2018-08-31T03:57:09.441Z,95222.20
2018-08-31T03:59:38.683Z,95214.92
2018-08-31T04:02:07.930Z,95206.13
2018-08-31T04:04:37.172Z,95211.75
2018-08-31T04:07:06.402Z,95205.73
2018-08-31T04:09:35.676Z,95209.73
2018-08-31T04:12:04.905Z,95201.48
2018-08-31T04:14:34.170Z,95206.75
2018-08-31T04:17:03.499Z,95206.55
2018-08-31T04:19:32.750Z,95198.31
2018-08-31T04:22:01.994Z,95200.23
2018-08-31T04:24:31.230Z,95201.83
2018-08-31T04:27:00.478Z,95200.00
2018-08-31T04:29:29.790Z,95203.30
2018-08-31T04:31:59.055Z,95201.52
2018-08-31T04:34:28.323Z,95199.49
2018-08-31T04:36:57.564Z,95199.49
2018-08-31T04:39:26.811Z,95202.95
2018-08-31T04:41:56.048Z,95199.33
2018-08-31T04:44:25.323Z,95201.52
2018-08-31T04:46:54.514Z,95197.80
2018-08-31T04:49:23.768Z,95192.39
2018-08-31T04:51:53.008Z,95185.81
2018-08-31T04:54:22.238Z,95172.78
2018-08-31T04:56:51.502Z,95185.50
2018-08-31T04:59:20.727Z,95184.19
2018-08-31T05:01:49.980Z,95177.57
2018-08-31T05:04:19.352Z,95174.84
2018-08-31T05:06:48.574Z,95173.03
2018-08-31T05:09:17.817Z,95172.24
2018-08-31T05:11:47.084Z,95168.48
2018-08-31T05:14:16.310Z,95169.77
2018-08-31T05:16:45.575Z,95163.73
2018-08-31T05:19:14.838Z,95163.56
2018-08-31T05:21:44.079Z,95161.00
2018-08-31T05:24:13.321Z,95164.47
2018-08-31T05:26:42.572Z,95168.50
2018-08-31T05:29:11.931Z,95181.56
2018-08-31T05:31:41.171Z,95188.53
2018-08-31T05:34:10.615Z,95187.17
2018-08-31T05:36:39.842Z,95192.64
2018-08-31T05:39:11.013Z,95194.13
2018-08-31T05:41:40.331Z,95194.46
2018-08-31T05:44:09.698Z,95195.91
2018-08-31T05:46:39.168Z,95198.99
2018-08-31T05:49:08.436Z,95203.31
2018-08-31T05:51:37.706Z,95207.77
2018-08-31T05:54:07.267Z,95207.64
2018-08-31T05:56:36.541Z,95207.27
2018-08-31T05:59:06.406Z,95201.52
2018-08-31T06:01:35.652Z,95207.85
2018-08-31T06:04:04.878Z,95212.75
2018-08-31T06:06:34.190Z,95217.22
2018-08-31T06:09:03.791Z,95218.21
2018-08-31T06:11:33.058Z,95218.91
2018-08-31T06:14:02.311Z,95225.77
2018-08-31T06:16:31.548Z,95238.88
2018-08-31T06:19:00.866Z,95237.14
2018-08-31T06:21:30.131Z,95235.50
2018-08-31T06:23:59.370Z,95238.64
2018-08-31T06:26:28.611Z,95243.30
2018-08-31T06:28:57.864Z,95240.98
2018-08-31T06:31:27.092Z,95253.03
2018-08-31T06:33:56.577Z,95246.88
2018-08-31T06:36:25.766Z,95244.69
2018-08-31T06:38:55.015Z,95248.00
2018-08-31T06:41:24.279Z,95255.38
2018-08-31T06:43:53.518Z,95255.05
2018-08-31T06:46:22.794Z,95265.44
2018-08-31T06:48:52.207Z,95263.29
2018-08-31T06:51:21.481Z,95264.11
2018-08-31T06:53:50.704Z,95264.16
2018-08-31T06:56:19.956Z,95260.66
2018-08-31T06:58:49.195Z,95265.44
2018-08-31T07:01:18.779Z,95261.97
2018-08-31T07:03:48.148Z,95259.26
2018-08-31T07:06:17.312Z,95265.11
2018-08-31T07:08:46.559Z,95265.33
2018-08-31T07:11:15.828Z,95261.20
2018-08-31T07:13:45.279Z,95261.37
2018-08-31T07:16:14.571Z,95259.80
2018-08-31T07:18:43.845Z,95257.90
2018-08-31T07:21:13.115Z,95256.88
2018-08-31T07:23:42.414Z,95255.88
2018-08-31T07:26:11.711Z,95268.34
2018-08-31T07:28:40.935Z,95266.27
2018-08-31T07:31:10.219Z,95268.74
2018-08-31T07:33:39.543Z,95267.84
2018-08-31T07:36:08.794Z,95273.40
2018-08-31T07:38:38.024Z,95272.33
2018-08-31T07:41:07.320Z,95271.26
2018-08-31T07:43:36.567Z,95272.03
2018-08-31T07:46:05.894Z,95272.41
2018-08-31T07:48:35.140Z,95266.50
2018-08-31T07:51:04.467Z,95270.38
2018-08-31T07:53:33.750Z,95271.41
2018-08-31T07:56:02.988Z,95268.13
2018-08-31T07:58:32.227Z,95270.57
2018-08-31T08:01:01.465Z,95263.22
2018-08-31T08:03:30.733Z,95260.39
2018-08-31T08:05:59.966Z,95263.30
2018-08-31T08:08:29.221Z,95262.66
2018-08-31T08:10:58.474Z,95262.72
2018-08-31T08:13:27.741Z,95260.77
2018-08-31T08:15:56.986Z,95256.77
2018-08-31T08:18:26.219Z,95259.09
2018-08-31T08:20:55.446Z,95257.34
2018-08-31T08:23:24.993Z,95261.59
2018-08-31T08:25:54.261Z,95259.06
2018-08-31T08:28:23.535Z,95260.59
2018-08-31T08:30:52.759Z,95261.59
2018-08-31T08:33:22.027Z,95262.80
2018-08-31T08:35:51.257Z,95267.63
2018-08-31T08:38:20.495Z,95266.52
2018-08-31T08:40:49.748Z,95269.28
2018-08-31T08:43:19.013Z,95266.02
2018-08-31T08:45:49.753Z,95258.09
2018-08-31T08:48:19.018Z,95263.30
2018-08-31T08:50:48.210Z,95267.95
2018-08-31T08:53:17.468Z,95265.11
2018-08-31T08:55:46.714Z,95262.62
2018-08-31T08:58:16.013Z,95269.02
2018-08-31T09:00:45.207Z,95266.31
2018-08-31T09:03:14.460Z,95258.01
2018-08-31T09:05:43.716Z,95253.23
2018-08-31T09:08:12.955Z,95251.52
2018-08-31T09:10:42.190Z,95253.49
2018-08-31T09:13:11.447Z,95252.48
2018-08-31T09:15:40.684Z,95262.95
2018-08-31T09:18:09.921Z,95266.42
2018-08-31T09:20:39.150Z,95265.52
2018-08-31T09:23:08.407Z,95263.61
2018-08-31T09:25:37.863Z,95266.32
2018-08-31T09:28:07.101Z,95268.14
2018-08-31T09:30:43.418Z,95270.45
2018-08-31T09:33:12.679Z,95264.23
2018-08-31T09:35:41.921Z,95261.86
2018-08-31T09:38:11.182Z,95258.78
2018-08-31T09:40:40.386Z,95265.67
2018-08-31T09:43:10.008Z,95261.21
2018-08-31T09:45:39.244Z,95264.94
2018-08-31T09:48:08.494Z,95272.66
2018-08-31T09:50:38.006Z,95275.63
2018-08-31T09:53:07.244Z,95275.63
2018-08-31T09:55:36.495Z,95276.74
2018-08-31T09:58:05.738Z,95274.42
2018-08-31T10:00:40.259Z,95278.27
2018-08-31T10:03:14.667Z,95278.94
2018-08-31T10:05:43.979Z,95278.39
2018-08-31T10:08:13.213Z,95278.19
2018-08-31T10:10:42.540Z,95277.91
2018-08-31T10:13:11.873Z,95273.95
2018-08-31T10:15:41.775Z,95285.79
2018-08-31T10:18:11.075Z,95281.38
2018-08-31T10:20:40.298Z,95283.03
2018-08-31T10:23:09.594Z,95277.03
2018-08-31T10:25:38.846Z,95271.98
2018-08-31T10:28:08.095Z,95276.33
2018-08-31T10:30:37.336Z,95277.33
2018-08-31T10:33:06.815Z,95275.77
2018-08-31T10:35:36.048Z,95273.86
2018-08-31T10:38:05.291Z,95271.50
2018-08-31T10:40:34.524Z,95273.26
2018-08-31T10:43:03.837Z,95280.73
2018-08-31T10:45:33.088Z,95277.72
2018-08-31T10:48:02.357Z,95273.64
2018-08-31T10:50:31.587Z,95268.91
2018-08-31T10:53:00.842Z,95266.48
2018-08-31T10:55:30.105Z,95274.02
2018-08-31T10:57:59.359Z,95270.44
2018-08-31T11:00:28.707Z,95268.95
2018-08-31T11:02:57.966Z,95263.50
2018-08-31T11:05:27.207Z,95265.70
2018-08-31T11:07:56.470Z,95268.97
2018-08-31T11:10:25.715Z,95262.89
2018-08-31T11:12:55.002Z,95267.31
2018-08-31T11:15:24.303Z,95272.26
2018-08-31T11:17:53.614Z,95273.41
2018-08-31T11:20:22.858Z,95272.75
2018-08-31T11:22:52.111Z,95268.45
2018-08-31T11:25:21.361Z,95270.88
2018-08-31T11:27:50.672Z,95273.39
2018-08-31T11:30:19.905Z,95273.39
2018-08-31T11:32:49.147Z,95273.57
2018-08-31T11:35:18.464Z,95274.42
2018-08-31T11:37:47.739Z,95273.20
2018-08-31T11:40:17.251Z,95268.13
2018-08-31T11:42:46.503Z,95268.02
2018-08-31T11:45:15.860Z,95272.42
2018-08-31T11:47:45.106Z,95278.00
2018-08-31T11:50:14.334Z,95276.22
2018-08-31T11:52:43.860Z,95271.77
2018-08-31T11:55:13.137Z,95265.25
2018-08-31T11:57:42.343Z,95268.39
2018-08-31T12:00:11.578Z,95268.13
2018-08-31T12:02:40.821Z,95257.66
2018-08-31T12:05:10.092Z,95270.27
2018-08-31T12:07:39.336Z,95262.62
2018-08-31T12:10:08.567Z,95256.89
2018-08-31T12:12:37.819Z,95261.13
2018-08-31T12:15:07.098Z,95252.59
2018-08-31T12:17:36.352Z,95256.71
2018-08-31T12:20:05.853Z,95249.58
2018-08-31T12:22:35.087Z,95251.97
2018-08-31T12:25:04.371Z,95254.94
2018-08-31T12:27:33.607Z,95246.44
2018-08-31T12:30:02.945Z,95247.09
2018-08-31T12:32:32.307Z,95245.40
2018-08-31T12:35:01.563Z,95243.83
2018-08-31T12:37:30.783Z,95235.56
2018-08-31T12:40:00.026Z,95236.00
2018-08-31T12:42:29.264Z,95236.47
2018-08-31T12:44:58.512Z,95236.98
2018-08-31T12:47:28.000Z,95238.68
2018-08-31T12:49:57.256Z,95245.97
2018-08-31T12:52:26.500Z,95248.27
2018-08-31T12:54:55.735Z,95240.33
2018-08-31T12:57:24.978Z,95244.03
2018-08-31T12:59:59.123Z,95245.16
2018-08-31T13:02:31.067Z,95246.97
2018-08-31T13:05:00.883Z,95245.56
2018-08-31T13:07:30.110Z,95247.70
2018-08-31T13:09:59.351Z,95238.11
2018-08-31T13:12:28.592Z,95238.66
2018-08-31T13:14:57.833Z,95237.39
2018-08-31T13:17:27.066Z,95241.09
2018-08-31T13:19:56.462Z,95242.69
2018-08-31T13:22:25.673Z,95237.66
2018-08-31T13:24:54.923Z,95243.32
2018-08-31T13:27:25.399Z,95236.60
2018-08-31T13:29:54.632Z,95238.68
2018-08-31T13:32:23.883Z,95237.42
2018-08-31T13:34:53.128Z,95241.48
2018-08-31T13:37:22.364Z,95235.22
2018-08-31T13:39:51.600Z,95238.58
2018-08-31T13:42:20.828Z,95235.88
2018-08-31T13:44:50.110Z,95236.56
2018-08-31T13:47:19.355Z,95238.90
2018-08-31T13:49:48.615Z,95240.75
2018-08-31T13:52:17.887Z,95245.14
2018-08-31T13:54:47.135Z,95239.31
2018-08-31T13:57:16.373Z,95240.22
2018-08-31T13:59:45.661Z,95235.84
2018-08-31T14:02:14.902Z,95233.03
2018-08-31T14:04:44.164Z,95231.89
2018-08-31T14:07:13.415Z,95243.54
2018-08-31T14:09:42.659Z,95240.85
2018-08-31T14:12:11.907Z,95241.61
2018-08-31T14:14:41.143Z,95231.99
2018-08-31T14:17:10.386Z,95240.56
2018-08-31T14:19:39.651Z,95242.58
2018-08-31T14:22:08.894Z,95238.28
2018-08-31T14:24:38.135Z,95235.53
2018-08-31T14:27:07.404Z,95237.42
2018-08-31T14:29:36.736Z,95238.47
2018-08-31T14:32:05.920Z,95237.92
2018-08-31T14:34:35.163Z,95247.26
2018-08-31T14:37:04.704Z,95248.37
2018-08-31T14:39:33.931Z,95253.55
2018-08-31T14:42:03.175Z,95250.91
2018-08-31T14:44:32.427Z,95253.88
2018-08-31T14:47:01.692Z,95251.16
2018-08-31T14:49:31.012Z,95249.02
2018-08-31T14:52:00.171Z,95251.02
2018-08-31T14:54:29.419Z,95259.06
2018-08-31T14:56:58.716Z,95262.20
2018-08-31T14:59:27.959Z,95261.66
2018-08-31T15:01:58.435Z,95258.02
2018-08-31T15:04:27.679Z,95261.13
2018-08-31T15:06:56.965Z,95259.76
2018-08-31T15:09:26.221Z,95251.78
2018-08-31T15:11:55.479Z,95257.05
2018-08-31T15:14:24.719Z,95258.59
2018-08-31T15:16:53.979Z,95261.68
2018-08-31T15:19:23.275Z,95259.26
2018-08-31T15:21:52.562Z,95257.77
2018-08-31T15:24:21.812Z,95257.44
2018-08-31T15:26:51.071Z,95260.86
2018-08-31T15:29:20.308Z,95253.48
2018-08-31T15:31:49.626Z,95255.11
2018-08-31T15:34:18.902Z,95250.00
2018-08-31T15:36:48.366Z,95257.98
2018-08-31T15:39:17.538Z,95253.84
2018-08-31T15:41:46.797Z,95260.68
2018-08-31T15:44:16.303Z,95260.54
2018-08-31T15:46:45.547Z,95256.31
2018-08-31T15:49:14.795Z,95262.06
2018-08-31T15:51:44.057Z,95254.86
2018-08-31T15:54:13.302Z,95255.86
2018-08-31T15:56:42.545Z,95253.31
2018-08-31T15:59:11.784Z,95251.84
2018-08-31T16:01:41.063Z,95256.02
2018-08-31T16:04:10.380Z,95252.08
2018-08-31T16:06:39.638Z,95252.61
2018-08-31T16:09:09.550Z,95260.08
2018-08-31T16:11:38.783Z,95259.58
2018-08-31T16:14:08.110Z,95251.09
2018-08-31T16:16:37.363Z,95251.09
2018-08-31T16:19:06.710Z,95251.71
2018-08-31T16:21:35.855Z,95255.17
2018-08-31T16:24:05.097Z,95251.71
2018-08-31T16:26:34.333Z,95257.48
2018-08-31T16:29:03.621Z,95250.64
2018-08-31T16:31:32.835Z,95250.06
2018-08-31T16:34:02.079Z,95254.97
2018-08-31T16:36:31.355Z,95257.44
2018-08-31T16:39:00.675Z,95255.30
2018-08-31T16:41:29.855Z,95258.23
2018-08-31T16:43:59.125Z,95258.98
2018-08-31T16:46:28.371Z,95261.61
2018-08-31T16:48:57.881Z,95257.91
2018-08-31T16:51:27.123Z,95267.64
2018-08-31T16:53:56.372Z,95271.02
2018-08-31T16:56:25.614Z,95264.42
2018-08-31T16:58:54.844Z,95266.27
2018-08-31T17:01:26.957Z,95267.30
2018-08-31T17:03:56.219Z,95263.46
2018-08-31T17:06:25.443Z,95271.33
2018-08-31T17:08:54.724Z,95268.56
2018-08-31T17:11:23.948Z,95266.09
2018-08-31T17:13:53.192Z,95266.59
2018-08-31T17:16:22.441Z,95269.56
2018-08-31T17:18:51.701Z,95273.06
2018-08-31T17:21:20.959Z,95271.88
2018-08-31T17:23:50.202Z,95266.67
2018-08-31T17:26:24.909Z,95265.06
2018-08-31T17:28:59.383Z,95265.63
2018-08-31T17:31:33.753Z,95269.55
2018-08-31T17:34:08.099Z,95272.31
2018-08-31T17:36:42.443Z,95273.75
2018-08-31T17:39:11.682Z,95279.53
2018-08-31T17:41:40.923Z,95279.56
2018-08-31T17:44:10.174Z,95279.14
2018-08-31T17:46:39.672Z,95286.89
2018-08-31T17:49:08.925Z,95291.05
2018-08-31T17:51:38.170Z,95289.34
2018-08-31T17:54:07.426Z,95285.67
2018-08-31T17:56:36.662Z,95292.77
2018-08-31T17:59:06.091Z,95289.34
2018-08-31T18:01:36.558Z,95296.91
2018-08-31T18:04:12.650Z,95292.63
2018-08-31T18:06:41.815Z,95298.17
2018-08-31T18:09:11.115Z,95304.47
2018-08-31T18:11:40.322Z,95302.33
2018-08-31T18:14:09.604Z,95292.77
2018-08-31T18:16:40.092Z,95296.42
2018-08-31T18:19:09.226Z,95293.13
2018-08-31T18:21:38.471Z,95296.66
2018-08-31T18:24:07.702Z,95298.83
2018-08-31T18:26:36.931Z,95296.06
2018-08-31T18:29:06.229Z,95300.31
2018-08-31T18:31:35.457Z,95304.11
2018-08-31T18:34:04.767Z,95311.19
2018-08-31T18:36:33.983Z,95310.20
2018-08-31T18:39:03.430Z,95313.00
2018-08-31T18:41:32.658Z,95317.19
2018-08-31T18:44:01.907Z,95322.09
2018-08-31T18:46:31.227Z,95313.83
2018-08-31T18:49:00.460Z,95318.97
2018-08-31T18:51:29.707Z,95308.55
2018-08-31T18:53:59.007Z,95309.55
2018-08-31T18:56:28.291Z,95311.55
2018-08-31T18:58:57.541Z,95323.28
2018-08-31T19:01:26.783Z,95318.50
2018-08-31T19:03:56.018Z,95326.67
2018-08-31T19:06:28.149Z,95328.66
2018-08-31T19:08:57.391Z,95328.30
2018-08-31T19:11:26.618Z,95325.59
2018-08-31T19:13:55.863Z,95324.64
2018-08-31T19:16:25.098Z,95332.91
2018-08-31T19:18:54.354Z,95332.08
2018-08-31T19:21:23.599Z,95335.55
2018-08-31T19:23:52.846Z,95341.48
2018-08-31T19:26:22.095Z,95338.41
2018-08-31T19:28:51.327Z,95338.97
2018-08-31T19:31:20.675Z,95345.23
2018-08-31T19:33:49.833Z,95339.47
2018-08-31T19:36:19.117Z,95341.48
2018-08-31T19:38:48.380Z,95339.00
2018-08-31T19:41:17.646Z,95341.02
2018-08-31T19:43:46.884Z,95335.25
2018-08-31T19:46:16.138Z,95332.44
2018-08-31T19:48:45.367Z,95321.73
2018-08-31T19:51:14.619Z,95327.34
2018-08-31T19:53:43.920Z,95333.95
2018-08-31T19:56:13.123Z,95327.23
2018-08-31T19:58:42.375Z,95339.81
2018-08-31T20:01:11.631Z,95346.82
2018-08-31T20:03:40.883Z,95341.24
2018-08-31T20:06:10.123Z,95341.47
2018-08-31T20:08:39.362Z,95343.61
2018-08-31T20:11:08.630Z,95338.89
2018-08-31T20:13:37.910Z,95337.44
2018-08-31T20:16:07.180Z,95342.23
2018-08-31T20:18:36.427Z,95343.36
2018-08-31T20:21:05.704Z,95343.36
2018-08-31T20:23:34.956Z,95340.86
2018-08-31T20:26:04.214Z,95342.37
2018-08-31T20:28:33.482Z,95349.59
2018-08-31T20:31:02.823Z,95353.19
2018-08-31T20:33:31.978Z,95353.05
2018-08-31T20:36:01.224Z,95362.08
2018-08-31T20:38:30.489Z,95362.30
2018-08-31T20:40:59.884Z,95365.47
2018-08-31T20:43:29.148Z,95363.80
2018-08-31T20:45:58.375Z,95369.84
2018-08-31T20:48:27.632Z,95363.92
2018-08-31T20:50:56.895Z,95363.78
2018-08-31T20:53:26.119Z,95363.59
2018-08-31T20:55:55.543Z,95365.59
2018-08-31T20:58:24.772Z,95366.00
2018-08-31T21:00:54.017Z,95367.34
2018-08-31T21:03:23.263Z,95363.20
2018-08-31T21:05:52.525Z,95371.74
2018-08-31T21:08:22.033Z,95371.11
2018-08-31T21:10:51.291Z,95369.46
2018-08-31T21:13:20.520Z,95369.60
2018-08-31T21:15:49.745Z,95375.20
2018-08-31T21:18:19.010Z,95374.54
2018-08-31T21:20:48.243Z,95371.55
2018-08-31T21:23:17.531Z,95372.08
2018-08-31T21:25:46.759Z,95374.52
2018-08-31T21:28:16.024Z,95369.60
2018-08-31T21:30:45.275Z,95376.66
2018-08-31T21:33:14.522Z,95384.07
2018-08-31T21:35:43.755Z,95372.68
2018-08-31T21:38:12.997Z,95371.52
2018-08-31T21:40:42.251Z,95379.92
2018-08-31T21:43:11.479Z,95380.59
2018-08-31T21:45:40.731Z,95375.31
2018-08-31T21:48:09.982Z,95372.02
2018-08-31T21:50:39.237Z,95371.72
2018-08-31T21:53:08.511Z,95370.20
2018-08-31T21:55:37.759Z,95370.70
2018-08-31T21:58:07.012Z,95374.19
2018-08-31T22:00:41.310Z,95368.91
2018-08-31T22:03:11.615Z,95369.38
2018-08-31T22:05:41.176Z,95372.84
2018-08-31T22:08:10.413Z,95375.67
2018-08-31T22:10:39.643Z,95376.19
2018-08-31T22:13:08.879Z,95375.25
2018-08-31T22:15:38.115Z,95369.70
2018-08-31T22:18:07.504Z,95362.62
2018-08-31T22:20:36.758Z,95362.73
2018-08-31T22:23:06.042Z,95364.27
2018-08-31T22:25:35.304Z,95362.81
2018-08-31T22:28:04.531Z,95358.75
2018-08-31T22:30:33.778Z,95356.61
2018-08-31T22:33:03.018Z,95350.02
2018-08-31T22:35:32.274Z,95358.41
2018-08-31T22:38:01.517Z,95356.11
2018-08-31T22:40:30.755Z,95356.82
2018-08-31T22:42:59.999Z,95352.37
2018-08-31T22:45:29.240Z,95354.52
2018-08-31T22:47:58.478Z,95354.88
2018-08-31T22:50:27.731Z,95356.63
2018-08-31T22:52:56.975Z,95356.27
2018-08-31T22:55:26.211Z,95353.84
2018-08-31T22:57:55.498Z,95344.89
2018-08-31T23:00:26.666Z,95342.75
2018-08-31T23:02:56.671Z,95336.52
2018-08-31T23:05:25.938Z,95330.81
2018-08-31T23:08:01.732Z,95336.71
2018-08-31T23:10:32.371Z,95336.52
2018-08-31T23:13:02.108Z,95345.11
2018-08-31T23:15:31.364Z,95343.30
2018-08-31T23:18:00.594Z,95345.80
2018-08-31T23:20:29.860Z,95345.66
2018-08-31T23:23:05.061Z,95344.00
2018-08-31T23:30:32.728Z,95331.16
2018-08-31T23:33:01.983Z,95327.22
2018-08-31T23:35:31.233Z,95324.23
2018-08-31T23:38:00.463Z,95325.08
2018-08-31T23:40:29.711Z,95320.98
2018-08-31T23:42:59.007Z,95324.06
2018-08-31T23:45:28.235Z,95323.27
2018-08-31T23:47:57.512Z,95322.30
2018-08-31T23:50:26.775Z,95327.87
2018-08-31T23:52:56.394Z,95323.09
2018-08-31T23:55:25.655Z,95327.40
2018-08-31T23:57:54.951Z,95322.60
